Time;durP1;ratioP1;P1;durP2;ratioP2;P2;SDS_P1;SDS_P2;PMS_P1;PMS_P2;Temp;Humidity;BMP_temperature;BMP_pressure;BME280_temperature;BME280_humidity;BME280_pressure;Samples;Min_cycle;Max_cycle;Signal;HPM_P1;HPM_P2
2022/02/07 00:01:57;;;;;;;17.70;9.70;;;;;;;4.83;71.34;99233.32;1479042;87;22039;-81
2022/02/07 00:04:23;;;;;;;17.10;9.97;;;;;;;4.79;71.63;99228.03;1485881;87;24042;-81
2022/02/07 00:06:47;;;;;;;20.63;10.33;;;;;;;4.75;71.97;99217.00;1483674;87;22225;-81
2022/02/07 00:09:14;;;;;;;17.27;9.37;;;;;;;4.73;71.86;99207.13;1489404;87;22231;-82
2022/02/07 00:11:41;;;;;;;17.33;9.40;;;;;;;4.71;72.33;99203.81;1484752;87;22180;-81
2022/02/07 00:14:08;;;;;;;18.20;9.73;;;;;;;4.71;72.31;99205.95;1491178;87;21561;-81
2022/02/07 00:16:37;;;;;;;14.73;8.80;;;;;;;4.70;72.54;99204.80;1464878;87;24322;-81
2022/02/07 00:19:11;;;;;;;18.53;8.37;;;;;;;4.69;72.45;99195.25;1494751;87;22705;-81
2022/02/07 00:21:36;;;;;;;17.40;8.07;;;;;;;4.69;72.60;99196.56;1480152;87;23073;-81
2022/02/07 00:24:04;;;;;;;20.33;11.10;;;;;;;4.67;72.59;99186.23;1466669;87;22038;-82
2022/02/07 00:26:31;;;;;;;12.33;7.57;;;;;;;4.67;72.57;99173.13;1490299;87;24216;-82
2022/02/07 00:29:16;;;;;;;13.77;8.90;;;;;;;4.68;72.87;99173.95;1480635;87;22939;-82
2022/02/07 00:31:52;;;;;;;14.47;8.90;;;;;;;4.66;73.08;99168.02;1489025;87;22024;-82
2022/02/07 00:34:34;;;;;;;15.87;8.50;;;;;;;4.64;73.48;99168.66;1475051;87;22334;-84
2022/02/07 00:37:09;;;;;;;;;;;;;;;4.66;73.54;99162.78;1483370;88;22039;-84
2022/02/07 00:40:16;;;;;;;17.53;10.00;;;;;;;4.60;74.01;99148.93;1463845;88;20387;-84
2022/02/07 00:43:03;;;;;;;17.17;8.97;;;;;;;4.59;73.92;99135.50;1472301;88;22070;-84
2022/02/07 00:45:48;;;;;;;19.00;9.03;;;;;;;4.53;74.28;99136.39;1474848;88;23038;-85
2022/02/07 00:48:22;;;;;;;13.77;8.87;;;;;;;4.49;74.54;99122.42;1475504;88;22173;-85
2022/02/07 00:50:55;;;;;;;15.67;8.43;;;;;;;4.46;74.74;99118.29;1476330;87;22260;-86
2022/02/07 00:53:31;;;;;;;15.30;8.03;;;;;;;4.44;74.83;99117.59;1473830;88;22038;-85
2022/02/07 00:56:20;;;;;;;16.60;9.43;;;;;;;4.45;74.77;99113.17;1472113;88;23066;-86
2022/02/07 00:58:48;;;;;;;16.73;8.60;;;;;;;4.43;74.71;99106.78;1474168;87;22201;-85
2022/02/07 01:01:28;;;;;;;;;;;;;;;;;;;;;
2022/02/07 01:03:59;;;;;;;17.70;8.77;;;;;;;4.43;74.95;99092.38;1454391;88;22156;-85
2022/02/07 01:06:49;;;;;;;15.90;8.53;;;;;;;4.45;75.11;99090.91;1469938;88;22318;-86
2022/02/07 01:09:30;;;;;;;13.20;8.37;;;;;;;4.45;75.34;99082.55;1460382;88;22356;-86
2022/02/07 01:14:41;;;;;;;15.60;8.87;;;;;;;4.51;75.70;99068.88;1484113;87;22126;-85
2022/02/07 01:47:45;;;;;;;16.87;9.70;;;;;;;4.83;74.54;98988.22;1437724;89;23272;-85
2022/02/07 01:54:44;;;;;;;13.17;8.80;;;;;;;4.92;74.06;98959.34;1438836;89;21671;-84
2022/02/07 01:57:11;;;;;;;13.50;8.70;;;;;;;4.93;74.19;98958.36;1440763;90;21607;-84
2022/02/07 01:59:39;;;;;;;16.50;10.20;;;;;;;4.96;74.23;98946.75;1453037;89;21591;-84
2022/02/07 02:02:07;;;;;;;17.33;8.67;;;;;;;4.98;74.13;98940.39;1453818;90;23200;-85
2022/02/07 02:04:35;;;;;;;14.50;8.63;;;;;;;5.01;74.11;98926.66;1450476;90;23118;-86
2022/02/07 02:07:03;;;;;;;13.60;8.47;;;;;;;5.01;74.23;98929.61;1450245;89;23125;-84
2022/02/07 02:09:31;;;;;;;19.10;10.13;;;;;;;5.02;74.32;98929.61;1439738;90;22569;-84
2022/02/07 02:11:58;;;;;;;17.10;10.17;;;;;;;5.02;74.17;98934.85;1445993;90;22620;-84
2022/02/07 02:14:38;;;;;;;20.20;9.77;;;;;;;5.01;74.43;98935.84;1445633;90;22246;-83
2022/02/07 02:17:12;;;;;;;17.50;9.67;;;;;;;5.00;74.68;98928.92;1451073;90;22244;-83
2022/02/07 02:46:35;;;;;;;13.20;8.47;;;;;;;4.85;81.52;98867.83;1471195;89;22315;-85
2022/02/07 02:49:04;;;;;;;17.80;9.33;;;;;;;4.83;81.56;98893.35;1469402;88;21883;-85
2022/02/07 02:51:32;;;;;;;14.47;9.03;;;;;;;4.81;81.46;98911.54;1471440;89;22195;-84
2022/02/07 02:54:00;;;;;;;17.73;10.17;;;;;;;4.79;81.33;98918.72;1467429;89;22144;-84
2022/02/07 02:56:28;;;;;;;13.07;8.10;;;;;;;4.76;81.32;98911.97;1469394;89;22174;-85
2022/02/07 02:58:55;;;;;;;15.03;10.10;;;;;;;4.74;81.37;98905.55;1465948;88;22810;-84
2022/02/07 03:01:22;;;;;;;15.53;7.97;;;;;;;4.72;81.72;98894.91;1469972;88;22064;-85
2022/02/07 03:03:50;;;;;;;15.47;8.20;;;;;;;4.73;81.42;98893.92;1469850;88;22047;-86
2022/02/07 03:06:17;;;;;;;16.17;9.87;;;;;;;4.72;81.54;98894.91;1465962;89;21995;-86
2022/02/07 03:08:44;;;;;;;21.53;9.90;;;;;;;4.71;81.46;98898.48;1468497;89;22086;-86
2022/02/07 03:11:15;;;;;;;16.30;10.07;;;;;;;4.70;81.54;98887.17;1452615;89;22228;-86
2022/02/07 03:13:50;;;;;;;14.63;9.33;;;;;;;4.73;80.73;98880.81;1470009;88;22071;-85
2022/02/07 03:19:12;;;;;;;16.60;8.97;;;;;;;4.71;82.04;98867.03;1468761;89;23573;-81
2022/02/07 03:21:41;;;;;;;15.77;9.73;;;;;;;4.71;82.43;98863.09;1466761;88;22202;-82
2022/02/07 03:24:09;;;;;;;17.70;9.40;;;;;;;4.70;82.83;98864.08;1463802;89;22011;-82
2022/02/07 03:26:44;;;;;;;13.03;8.80;;;;;;;4.69;82.92;98867.19;1457471;89;21930;-82
2022/02/07 03:29:14;;;;;;;13.77;9.03;;;;;;;4.67;83.04;98863.06;1468036;89;22009;-82
2022/02/07 03:31:41;;;;;;;15.00;8.47;;;;;;;4.65;83.16;98845.34;1456380;89;22151;-82
2022/02/07 03:34:09;;;;;;;17.33;9.07;;;;;;;4.67;82.83;98860.45;1461661;88;23026;-82
2022/02/07 03:36:36;;;;;;;15.70;10.20;;;;;;;4.63;83.24;98842.04;1469567;88;23659;-82
2022/02/07 03:39:05;;;;;;;20.27;10.33;;;;;;;4.62;83.28;98843.84;1463686;88;21989;-82
2022/02/07 03:41:33;;;;;;;13.97;9.70;;;;;;;4.62;83.46;98848.27;1468259;89;22021;-82
2022/02/07 03:44:00;;;;;;;16.30;9.07;;;;;;;4.63;82.96;98865.63;1471756;89;22099;-81
2022/02/07 03:46:27;;;;;;;18.57;10.57;;;;;;;4.63;83.42;98866.94;1471692;88;22128;-82
2022/02/07 03:48:54;;;;;;;15.03;9.57;;;;;;;4.64;82.59;98863.36;1468010;88;22174;-82
2022/02/07 03:51:22;;;;;;;14.93;9.33;;;;;;;4.62;83.43;98859.56;1467158;89;22211;-82
2022/02/07 03:53:49;;;;;;;14.63;10.33;;;;;;;4.65;82.96;98875.48;1468516;89;22039;-81
2022/02/07 03:56:17;;;;;;;17.20;9.47;;;;;;;4.67;82.78;98864.38;1490806;87;22128;-81
2022/02/07 03:58:44;;;;;;;13.53;9.33;;;;;;;4.69;82.58;98856.70;1477305;88;22151;-81
2022/02/07 04:01:12;;;;;;;19.67;10.57;;;;;;;4.73;82.40;98862.47;1466787;89;22195;-81
2022/02/07 04:03:40;;;;;;;17.40;10.20;;;;;;;4.73;82.23;98861.98;1472849;88;22169;-81
2022/02/07 04:06:14;;;;;;;18.67;9.43;;;;;;;4.75;82.15;98851.36;1469388;88;24395;-81
2022/02/07 04:08:40;;;;;;;17.80;10.57;;;;;;;4.74;82.11;98841.83;1461080;88;22221;-81
2022/02/07 04:13:35;;;;;;;14.27;9.03;;;;;;;4.81;81.49;98855.19;1470755;88;22173;-82
2022/02/07 04:16:05;;;;;;;12.53;8.27;;;;;;;4.83;81.42;98854.03;1472656;88;22874;-82
2022/02/07 04:18:46;;;;;;;13.32;8.58;;;;;;;4.83;81.40;98849.28;1472722;89;21502;-81
2022/02/07 04:21:02;;;;;;;16.17;9.60;;;;;;;4.82;81.27;98832.73;1467058;89;22530;-82
2022/02/07 04:23:29;;;;;;;14.83;8.20;;;;;;;4.82;81.27;98832.73;1467440;88;21495;-85
2022/02/07 04:25:57;;;;;;;15.97;10.33;;;;;;;4.85;81.38;98849.97;1466725;88;23122;-82
2022/02/07 04:28:24;;;;;;;16.97;9.00;;;;;;;4.79;82.13;98840.08;1475157;88;21517;-81
2022/02/07 04:30:51;;;;;;;15.27;9.17;;;;;;;4.77;82.33;98854.63;1466568;89;22137;-81
2022/02/07 04:33:18;;;;;;;20.67;9.80;;;;;;;4.72;82.63;98852.48;1470277;88;22115;-81
2022/02/07 04:35:45;;;;;;;14.47;8.17;;;;;;;4.68;83.20;98851.59;1468688;88;22162;-81
2022/02/07 04:38:12;;;;;;;26.47;9.60;;;;;;;4.65;83.47;98844.85;1477986;88;23060;-81
2022/02/07 04:40:39;;;;;;;15.97;9.13;;;;;;;4.65;82.89;98842.72;1481415;88;21946;-81
2022/02/07 04:43:09;;;;;;;15.60;9.47;;;;;;;4.61;83.47;98840.89;1482944;88;22003;-81
2022/02/07 04:53:40;;;;;;;17.13;9.93;;;;;;;4.58;83.55;98854.30;1481239;88;22040;-82
2022/02/07 05:01:25;;;;;;;17.55;9.85;;;;;;;4.58;83.23;98843.00;1484038;87;22057;-80
2022/02/07 05:03:47;;;;;;;16.57;9.43;;;;;;;4.58;83.15;98845.13;1472590;88;21673;-81
2022/02/07 05:14:28;;;;;;;20.90;10.30;;;;;;;4.58;83.18;98816.80;1462089;88;22106;-82
2022/02/07 05:16:56;;;;;;;13.63;9.00;;;;;;;4.58;83.30;98798.45;1485199;88;22945;-82
2022/02/07 05:19:23;;;;;;;16.73;10.17;;;;;;;4.59;83.02;98798.78;1487077;86;22940;-82
2022/02/07 05:21:51;;;;;;;18.03;9.20;;;;;;;4.60;82.94;98793.86;1483903;88;22056;-82
2022/02/07 05:24:19;;;;;;;14.20;8.83;;;;;;;4.58;83.22;98773.56;1478206;87;22009;-81
2022/02/07 05:26:46;;;;;;;19.13;10.73;;;;;;;4.56;83.30;98757.16;1480834;87;22112;-81
2022/02/07 05:29:13;;;;;;;16.50;8.50;;;;;;;4.57;83.46;98752.23;1483827;88;22097;-81
2022/02/07 05:31:40;;;;;;;13.13;7.97;;;;;;;4.55;83.30;98754.21;1484943;88;22042;-82
2022/02/07 05:34:07;;;;;;;17.27;8.90;;;;;;;4.50;83.53;98765.94;1470525;88;22086;-81
2022/02/07 05:36:41;;;;;;;19.07;9.60;;;;;;;4.49;83.53;98767.42;1482823;88;22183;-82
2022/02/07 05:39:06;;;;;;;13.43;8.53;;;;;;;4.47;83.66;98779.34;1484169;88;22146;-81
2022/02/07 05:41:33;;;;;;;17.87;8.90;;;;;;;4.48;83.41;98792.77;1481159;88;22131;-81
2022/02/07 05:44:00;;;;;;;17.97;9.10;;;;;;;4.46;83.47;98797.36;1484103;88;21992;-80
2022/02/07 05:46:27;;;;;;;14.43;8.60;;;;;;;4.47;83.30;98800.30;1478483;88;22027;-81
2022/02/07 05:48:54;;;;;;;19.23;8.87;;;;;;;4.48;83.16;98796.70;1476387;88;22123;-79
2022/02/07 05:51:22;;;;;;;16.20;9.27;;;;;;;4.49;82.93;98785.27;1480884;88;22007;-79
2022/02/07 05:53:49;;;;;;;13.00;8.23;;;;;;;4.47;82.70;98792.44;1458953;88;23077;-79
2022/02/07 05:56:16;;;;;;;17.53;9.30;;;;;;;4.44;82.63;98809.77;1479042;88;22239;-79
2022/02/07 05:58:43;;;;;;;22.93;11.43;;;;;;;4.44;82.70;98810.26;1475112;88;22214;-79
2022/02/07 06:01:11;;;;;;;15.57;9.77;;;;;;;4.43;82.69;98793.72;1475883;88;22127;-79
2022/02/07 06:03:39;;;;;;;16.23;9.20;;;;;;;4.46;82.51;98788.19;1479124;88;22879;-79
2022/02/07 06:06:06;;;;;;;14.53;9.13;;;;;;;4.47;82.28;98785.89;1476625;88;22138;-79
2022/02/07 06:08:33;;;;;;;15.07;8.57;;;;;;;4.47;82.30;98786.38;1485965;88;22219;-79
2022/02/07 06:11:01;;;;;;;18.37;8.77;;;;;;;4.47;82.15;98787.20;1476383;88;22079;-79
2022/02/07 06:13:29;;;;;;;12.57;7.80;;;;;;;4.51;81.77;98790.34;1481374;88;23225;-78
2022/02/07 06:15:57;;;;;;;11.77;8.53;;;;;;;4.52;81.63;98787.59;1475967;88;22988;-79
2022/02/07 06:18:24;;;;;;;12.80;7.53;;;;;;;4.53;81.61;98803.63;1485644;88;23031;-79
2022/02/07 06:20:59;;;;;;;15.90;8.80;;;;;;;4.51;81.87;98821.29;1483952;88;22979;-79
2022/02/07 06:23:21;;;;;;;15.80;9.03;;;;;;;4.55;81.79;98827.58;1487987;88;22242;-79
2022/02/07 06:25:48;;;;;;;12.17;7.30;;;;;;;4.60;81.71;98817.45;1477585;88;22160;-79
2022/02/07 06:28:15;;;;;;;14.00;8.30;;;;;;;4.64;81.49;98818.81;1482360;88;22965;-80
2022/02/07 06:30:42;;;;;;;12.63;8.30;;;;;;;4.67;81.35;98822.45;1487935;88;22116;-80
2022/02/07 06:33:09;;;;;;;14.57;8.23;;;;;;;4.72;81.12;98830.69;1475709;88;21967;-80
2022/02/07 06:35:37;;;;;;;12.67;8.00;;;;;;;4.72;81.23;98821.52;1470225;87;22122;-80
2022/02/07 06:38:04;;;;;;;12.87;7.87;;;;;;;4.74;80.95;98815.62;1465487;88;22692;-80
2022/02/07 06:40:32;;;;;;;13.83;7.93;;;;;;;4.78;80.70;98806.50;1472108;88;22147;-80
2022/02/07 06:42:59;;;;;;;15.47;8.47;;;;;;;4.82;80.43;98817.02;1466160;88;22146;-80
2022/02/07 06:45:26;;;;;;;15.23;8.60;;;;;;;4.83;80.24;98812.09;1469306;88;23084;-80
2022/02/07 06:47:53;;;;;;;14.83;8.17;;;;;;;4.83;80.24;98812.09;1464292;88;22285;-79
2022/02/07 06:50:21;;;;;;;14.43;7.80;;;;;;;4.87;80.17;98813.45;1471454;88;22035;-80
2022/02/07 06:52:48;;;;;;;15.13;8.73;;;;;;;4.87;79.75;98788.55;1477254;88;22618;-79
2022/02/07 06:55:15;;;;;;;14.80;8.03;;;;;;;4.87;79.75;98788.55;1467836;87;21434;-79
2022/02/07 06:57:42;;;;;;;17.67;9.03;;;;;;;4.91;79.55;98787.76;1462876;88;23142;-79
2022/02/07 07:00:11;;;;;;;32.60;16.23;;;;;;;4.94;79.42;98775.16;1475780;87;21480;-79
2022/02/07 07:02:39;;;;;;;44.23;22.13;;;;;;;4.94;79.33;98786.14;1470305;88;21354;-80
2022/02/07 07:05:11;;;;;;;32.10;17.67;;;;;;;5.01;79.04;98766.71;1468655;87;21471;-79
2022/02/07 07:07:36;;;;;;;28.97;15.47;;;;;;;5.04;78.68;98771.16;1476590;88;21413;-80
2022/02/07 07:10:06;;;;;;;21.60;11.53;;;;;;;5.04;78.68;98771.16;1477411;88;21419;-80
2022/02/07 07:12:34;;;;;;;18.55;11.55;;;;;;;5.07;78.56;98770.03;1454004;88;22932;-81
2022/02/07 07:15:12;;;;;;;19.20;10.13;;;;;;;5.11;78.44;98768.73;1474022;88;21396;-80
2022/02/07 07:17:37;;;;;;;14.10;8.93;;;;;;;5.14;78.23;98754.00;1470841;88;21606;-81
2022/02/07 07:20:08;;;;;;;10.67;6.57;;;;;;;5.17;78.34;98758.94;1481085;88;21562;-81
2022/02/07 07:22:36;;;;;;;13.28;7.78;;;;;;;5.23;77.98;98774.55;1473685;88;21537;-81
2022/02/07 07:25:05;;;;;;;11.80;7.40;;;;;;;5.26;77.80;98769.00;1481075;88;21529;-79
2022/02/07 07:27:43;;;;;;;13.57;6.57;;;;;;;5.27;77.67;98770.66;1476078;88;21457;-82
2022/02/07 07:30:03;;;;;;;11.57;6.43;;;;;;;5.32;77.48;98784.12;1472972;88;21514;-81
2022/02/07 07:32:31;;;;;;;14.50;7.37;;;;;;;5.31;77.19;98786.41;1476154;88;22306;-80
2022/02/07 07:35:00;;;;;;;13.60;6.70;;;;;;;5.33;77.17;98787.09;1475604;88;21412;-79
2022/02/07 07:37:27;;;;;;;12.57;7.80;;;;;;;5.30;76.99;98786.91;1479972;88;21368;-81
2022/02/07 07:40:00;;;;;;;10.67;7.10;;;;;;;5.31;76.80;98784.61;1479674;88;21339;-82
2022/02/07 07:42:34;;;;;;;13.73;7.00;;;;;;;5.30;76.76;98781.66;1475198;87;21421;-85
2022/02/07 07:45:01;;;;;;;13.23;6.83;;;;;;;5.30;76.90;98785.59;1482257;88;22536;-81
2022/02/07 07:47:30;;;;;;;17.70;8.30;;;;;;;5.28;76.88;98777.05;1454696;88;21376;-81
2022/02/07 07:50:11;;;;;;;12.80;7.70;;;;;;;5.29;76.80;98781.31;1467608;88;21332;-81
2022/02/07 07:52:44;;;;;;;16.13;7.40;;;;;;;5.28;76.93;98782.30;1476990;88;21398;-81
2022/02/07 08:16:22;;;;;;;12.43;7.13;;;;;;;5.65;79.83;98760.21;1507875;85;22641;-78
2022/02/07 08:18:48;;;;;;;15.43;9.17;;;;;;;5.37;81.43;98761.69;1476140;88;21581;-78
2022/02/07 08:21:14;;;;;;;18.43;10.13;;;;;;;5.25;81.74;98757.69;1478961;87;21626;-78
2022/02/07 08:23:41;;;;;;;17.07;9.90;;;;;;;5.11;82.49;98753.00;1467506;89;21575;-78
2022/02/07 08:26:08;;;;;;;17.30;9.87;;;;;;;5.01;82.83;98750.98;1462786;89;21673;-78
2022/02/07 08:28:34;;;;;;;16.43;8.10;;;;;;;4.90;83.59;98755.48;1470712;89;21396;-78
2022/02/07 08:31:00;;;;;;;16.90;9.97;;;;;;;4.82;84.73;98763.27;1468786;88;21448;-78
2022/02/07 08:33:26;;;;;;;20.77;9.20;;;;;;;4.79;84.13;98758.34;1472753;88;21412;-78
2022/02/07 08:35:53;;;;;;;16.10;9.43;;;;;;;4.72;85.33;98758.62;1485441;88;21529;-78
2022/02/07 08:38:19;;;;;;;19.30;10.43;;;;;;;4.67;84.80;98762.98;1464697;88;21596;-78
2022/02/07 08:40:47;;;;;;;14.40;9.80;;;;;;;4.62;85.12;98754.75;1461645;89;22291;-78
2022/02/07 08:43:14;;;;;;;15.67;9.20;;;;;;;4.65;85.79;98757.56;1462567;88;21487;-78
2022/02/07 08:45:40;;;;;;;16.07;9.83;;;;;;;4.59;86.89;98760.78;1462288;89;24214;-78
2022/02/07 08:48:09;;;;;;;16.33;8.73;;;;;;;4.59;86.89;98760.78;1466599;89;21427;-78
2022/02/07 08:50:35;;;;;;;16.70;10.07;;;;;;;4.62;86.67;98778.33;1469226;89;22094;-79
2022/02/07 08:53:03;;;;;;;15.90;8.37;;;;;;;4.62;86.18;98782.27;1469728;88;23108;-80
2022/02/07 08:55:34;;;;;;;14.60;9.50;;;;;;;4.62;87.16;98791.92;1481801;88;22165;-80
2022/02/07 08:58:04;;;;;;;18.93;9.07;;;;;;;4.62;86.91;98786.69;1473623;87;22153;-80
2022/02/07 09:03:18;;;;;;;15.80;10.03;;;;;;;4.62;87.45;98778.83;1478296;88;21412;-80
2022/02/07 09:05:50;;;;;;;21.30;11.30;;;;;;;4.64;87.08;98771.65;1484929;87;22332;-79
2022/02/07 09:08:23;;;;;;;19.87;12.33;;;;;;;4.67;87.00;98764.80;1485147;88;22178;-79
2022/02/07 09:10:36;;;;;;;14.67;9.23;;;;;;;4.70;87.45;98765.80;1466483;88;22386;-80
2022/02/07 09:13:03;;;;;;;13.13;7.50;;;;;;;4.73;87.45;98785.16;1486268;88;22174;-79
2022/02/07 09:15:33;;;;;;;14.37;9.07;;;;;;;4.74;88.16;98788.10;1487526;88;23165;-79
2022/02/07 09:18:04;;;;;;;19.77;10.63;;;;;;;4.74;87.83;98792.03;1473071;88;22183;-80
2022/02/07 09:20:26;;;;;;;17.60;10.10;;;;;;;4.75;88.02;98789.27;1468947;88;21493;-79
2022/02/07 09:22:52;;;;;;;20.73;9.97;;;;;;;4.81;87.63;98790.96;1475797;87;23071;-79
2022/02/07 09:25:18;;;;;;;15.07;9.17;;;;;;;4.84;87.23;98788.86;1466109;88;21523;-79
2022/02/07 09:27:44;;;;;;;19.80;12.03;;;;;;;4.89;87.07;98795.79;1479413;87;21478;-79
2022/02/07 09:30:10;;;;;;;25.57;14.33;;;;;;;4.89;87.28;98802.34;1465148;88;21508;-79
2022/02/07 09:32:36;;;;;;;23.67;14.50;;;;;;;4.88;88.38;98794.13;1471851;87;22090;-80
2022/02/07 09:35:04;;;;;;;14.90;10.93;;;;;;;4.88;88.38;98794.13;1472612;88;21441;-80
2022/02/07 09:37:30;;;;;;;28.17;13.50;;;;;;;4.93;88.18;98800.23;1467861;87;21563;-79
2022/02/07 09:39:56;;;;;;;22.20;12.87;;;;;;;4.97;88.04;98801.56;1475700;88;21442;-79
2022/02/07 09:42:24;;;;;;;24.60;12.07;;;;;;;4.99;87.48;98802.25;1473676;87;23128;-79
2022/02/07 09:44:55;;;;;;;16.90;10.27;;;;;;;4.98;87.91;98804.05;1474519;88;23183;-79
2022/02/07 09:47:21;;;;;;;18.37;10.43;;;;;;;4.97;87.99;98803.70;1483203;87;21478;-79
2022/02/07 09:49:48;;;;;;;14.93;9.40;;;;;;;4.97;87.99;98803.70;1482479;87;21575;-80
2022/02/07 09:52:14;;;;;;;16.00;9.20;;;;;;;5.05;87.70;98798.20;1470912;87;21465;-79
2022/02/07 09:54:41;;;;;;;15.63;9.50;;;;;;;5.14;88.04;98805.97;1469593;88;21523;-79
2022/02/07 09:57:08;;;;;;;17.17;9.40;;;;;;;5.22;87.51;98815.70;1473960;88;21434;-78
2022/02/07 09:59:35;;;;;;;16.17;11.07;;;;;;;5.27;87.46;98808.20;1474805;88;22387;-79
2022/02/07 10:02:05;;;;;;;16.07;9.50;;;;;;;5.37;87.12;98824.66;1477355;87;21681;-79
2022/02/07 10:04:43;;;;;;;21.97;10.83;;;;;;;5.40;87.61;98816.48;1476345;87;21707;-78
2022/02/07 10:07:30;;;;;;;13.97;9.10;;;;;;;5.47;86.94;98821.10;1480616;87;22417;-78
2022/02/07 10:09:58;;;;;;;14.50;10.13;;;;;;;5.51;86.97;98817.21;1471557;87;21397;-78
2022/02/07 10:17:40;;;;;;;20.77;9.23;;;;;;;5.65;86.27;98816.64;1475393;87;21391;-79
2022/02/07 10:34:31;;;;;;;14.70;8.13;;;;;;;5.75;85.97;98818.66;1472266;87;21486;-79
2022/02/07 10:34:38;;;;;;;16.17;10.17;;;;;;;5.88;85.14;98826.12;1477225;88;21596;-79
2022/02/07 10:43:31;;;;;;;14.17;9.20;;;;;;;6.02;84.81;98844.44;1466588;87;21419;-80
2022/02/07 10:46:15;;;;;;;17.10;9.90;;;;;;;6.01;84.62;98864.63;1479863;87;21418;-80
2022/02/07 10:48:37;;;;;;;18.40;9.47;;;;;;;6.04;84.62;98873.97;1474089;88;23286;-80
2022/02/07 10:51:19;;;;;;;13.87;9.47;;;;;;;5.98;84.29;98874.11;1468997;88;21449;-80
2022/02/07 10:53:53;;;;;;;17.87;11.53;;;;;;;5.97;84.41;98878.22;1478895;88;21582;-80
2022/02/07 10:56:38;;;;;;;16.20;9.60;;;;;;;5.98;84.53;98883.80;1471940;88;21346;-80
2022/02/07 10:59:08;;;;;;;15.90;9.27;;;;;;;5.92;84.92;98898.83;1468559;87;21442;-80
2022/02/07 11:07:02;;;;;;;16.43;9.87;;;;;;;5.82;85.52;98918.14;1478340;87;21478;-80
2022/02/07 11:12:18;;;;;;;19.20;8.20;;;;;;;5.60;84.72;98948.82;1490070;86;21405;-80
2022/02/07 11:15:00;;;;;;;9.85;5.28;;;;;;;5.34;86.01;98965.32;1465770;88;22432;-80
2022/02/07 11:20:02;;;;;;;6.30;4.00;;;;;;;4.69;87.75;98993.45;1474516;88;21649;-80
2022/02/07 11:27:51;;;;;;;4.67;2.67;;;;;;;3.80;85.51;99040.97;1466034;88;22298;-82
2022/02/07 11:30:20;;;;;;;3.87;2.47;;;;;;;3.74;86.74;99030.56;1469298;88;22369;-81
2022/02/07 11:32:54;;;;;;;4.23;2.30;;;;;;;3.91;87.79;99029.02;1475267;88;22096;-82
2022/02/07 11:35:25;;;;;;;3.60;1.93;;;;;;;3.97;84.37;99033.72;1454559;89;22153;-81
2022/02/07 11:38:06;;;;;;;2.50;2.10;;;;;;;4.06;79.94;99032.87;1455232;89;23291;-81
2022/02/07 11:40:37;;;;;;;1.85;1.32;;;;;;;4.14;82.99;99032.64;1452926;90;22095;-81
2022/02/07 11:43:14;;;;;;;3.22;1.55;;;;;;;4.21;80.95;99040.30;1457484;89;21428;-81
2022/02/07 11:46:05;;;;;;;3.30;1.90;;;;;;;4.30;80.72;99058.60;1458380;88;21427;-78
2022/02/07 11:48:40;;;;;;;4.83;2.43;;;;;;;4.35;79.81;99063.43;1474943;88;23056;-77
2022/02/07 11:51:17;;;;;;;5.00;2.90;;;;;;;4.51;79.26;99071.99;1456073;89;21463;-81
2022/02/07 11:53:54;;;;;;;4.63;2.43;;;;;;;4.48;77.71;99066.55;1455826;88;22169;-81
2022/02/07 11:56:48;;;;;;;12.13;5.13;;;;;;;4.61;79.55;99068.06;1424743;92;22152;-86
2022/02/07 11:59:38;;;;;;;5.27;2.90;;;;;;;4.68;79.41;99075.67;1424872;90;22178;-83
2022/02/07 12:02:20;;;;;;;5.10;2.50;;;;;;;4.59;76.59;99097.01;1435269;91;23138;-85
2022/02/07 12:04:51;;;;;;;2.10;1.50;;;;;;;4.58;76.07;99099.30;1474342;88;22110;-85
2022/02/07 12:07:35;;;;;;;3.67;2.27;;;;;;;4.67;75.06;99112.03;1474497;88;23305;-85
2022/02/07 12:12:45;;;;;;;2.37;1.27;;;;;;;4.47;75.87;99106.83;1457710;90;21493;-83
2022/02/07 12:15:34;;;;;;;2.00;1.47;;;;;;;4.29;74.93;99112.45;1468658;88;22271;-83
2022/02/07 12:18:16;;;;;;;4.53;1.50;;;;;;;4.22;76.89;99127.05;1477624;87;22197;-82
2022/02/07 12:20:45;;;;;;;4.77;1.93;;;;;;;4.14;76.76;99129.53;1470874;87;22266;-82
2022/02/07 12:23:17;;;;;;;2.53;1.73;;;;;;;3.99;75.65;99128.63;1462199;90;21493;-83
2022/02/07 12:25:52;;;;;;;;;;;;;;;4.07;77.49;99126.65;1457435;89;22181;-80
2022/02/07 12:28:33;;;;;;;3.07;1.60;;;;;;;3.94;77.34;99126.93;1456123;88;20409;-80
2022/02/07 12:33:54;;;;;;;3.20;1.70;;;;;;;3.90;77.45;99147.78;1467417;88;23145;-80
2022/02/07 12:36:23;;;;;;;2.60;1.50;;;;;;;3.86;77.94;99151.65;1447314;89;23119;-80
2022/02/07 12:38:50;;;;;;;1.73;1.30;;;;;;;3.83;77.67;99154.05;1436775;90;22239;-80
2022/02/07 12:41:18;;;;;;;1.47;1.20;;;;;;;3.81;77.15;99159.89;1450729;88;22123;-82
2022/02/07 12:43:49;;;;;;;2.33;1.43;;;;;;;3.76;76.26;99169.94;1473865;88;22122;-82
2022/02/07 12:46:19;;;;;;;3.15;1.40;;;;;;;3.78;76.54;99171.13;1459932;88;22167;-82
2022/02/07 12:51:27;;;;;;;2.83;1.40;;;;;;;3.82;74.39;99190.33;1455117;87;22433;-82
2022/02/07 12:53:53;;;;;;;;;;;;;;;3.82;74.39;99190.33;1447144;88;22159;-82
2022/02/07 12:56:23;;;;;;;4.37;2.20;;;;;;;3.84;75.05;99205.42;1472074;88;20274;-82
2022/02/07 12:58:51;;;;;;;2.53;1.50;;;;;;;3.84;75.05;99205.42;1459858;88;22192;-82
2022/02/07 13:01:27;;;;;;;2.80;1.93;;;;;;;3.86;75.82;99213.64;1466424;88;22138;-82
2022/02/07 13:04:10;;;;;;;2.90;2.00;;;;;;;3.87;74.61;99221.34;1463883;89;23184;-82
2022/02/07 13:06:47;;;;;;;4.67;2.37;;;;;;;3.88;74.65;99233.95;1456544;88;22256;-82
2022/02/07 13:09:39;;;;;;;1.93;1.20;;;;;;;3.91;75.07;99249.39;1419853;91;22158;-82
2022/02/07 13:14:48;;;;;;;3.07;1.50;;;;;;;3.90;73.55;99236.78;1472216;88;22183;-82
2022/02/07 13:17:17;;;;;;;3.87;1.93;;;;;;;3.94;73.04;99239.89;1477898;87;22145;-83
2022/02/07 13:19:49;;;;;;;2.60;1.40;;;;;;;3.90;70.82;99239.89;1483830;88;22323;-82
2022/02/07 13:22:20;;;;;;;4.17;1.20;;;;;;;3.93;71.06;99254.84;1466674;88;22343;-82
2022/02/07 13:24:49;;;;;;;2.75;1.32;;;;;;;3.91;69.40;99255.44;1482728;87;22341;-82
2022/02/07 13:27:19;;;;;;;2.80;1.87;;;;;;;3.97;69.88;99264.55;1535429;87;21449;-82
2022/02/07 13:29:51;;;;;;;3.50;1.67;;;;;;;4.00;71.11;99254.66;1412590;88;22080;-81
2022/02/07 13:32:30;;;;;;;4.07;2.07;;;;;;;3.99;69.67;99262.16;1547095;88;22213;-81
2022/02/07 13:35:10;;;;;;;2.10;1.23;;;;;;;3.97;68.92;99258.86;1518016;87;22080;-80
2022/02/07 13:37:39;;;;;;;1.77;0.90;;;;;;;3.99;67.27;99267.88;1441576;88;23359;-81
2022/02/07 13:40:15;;;;;;;3.03;1.60;;;;;;;4.01;66.72;99291.66;1480429;88;23111;-81
2022/02/07 13:42:47;;;;;;;2.93;1.50;;;;;;;4.01;66.72;99291.66;1482277;88;22139;-81
2022/02/07 13:45:23;;;;;;;3.20;1.93;;;;;;;4.03;67.07;99297.59;1483408;88;22262;-81
2022/02/07 13:47:56;;;;;;;2.10;1.60;;;;;;;4.05;67.50;99307.44;1477507;87;22123;-84
2022/02/07 13:50:33;;;;;;;3.03;1.70;;;;;;;4.02;65.33;99316.04;1479955;88;22198;-81
2022/02/07 13:53:03;;;;;;;2.90;1.73;;;;;;;4.08;65.29;99318.13;1455564;90;23205;-81
2022/02/07 13:55:42;;;;;;;3.00;1.70;;;;;;;4.05;64.18;99325.77;1445029;90;22359;-81
2022/02/07 13:58:21;;;;;;;2.90;1.53;;;;;;;4.09;64.55;99336.00;1437375;91;21653;-82
2022/02/07 14:00:55;;;;;;;5.17;1.93;;;;;;;4.12;64.85;99338.35;1438000;91;23175;-82
2022/02/07 14:03:33;;;;;;;3.37;1.87;;;;;;;4.14;64.66;99349.02;1430322;91;22328;-81
2022/02/07 14:06:06;;;;;;;5.10;2.40;;;;;;;4.12;63.91;99356.68;1418619;91;22227;-82
2022/02/07 14:08:38;;;;;;;3.83;2.30;;;;;;;4.14;64.46;99359.97;1437186;91;22228;-82
2022/02/07 14:11:09;;;;;;;3.93;2.30;;;;;;;4.11;62.52;99366.30;1439601;91;23168;-82
2022/02/07 14:13:41;;;;;;;6.20;1.87;;;;;;;4.16;62.91;99369.84;1431371;91;22201;-83
2022/02/07 14:16:10;;;;;;;2.57;1.63;;;;;;;4.17;62.45;99380.20;1433102;91;21674;-82
2022/02/07 14:18:44;;;;;;;4.17;1.80;;;;;;;4.22;62.14;99383.72;1405044;91;22474;-82
2022/02/07 14:21:10;;;;;;;4.33;1.80;;;;;;;4.22;60.61;99377.17;1430888;90;23141;-82
2022/02/07 14:23:38;;;;;;;7.57;2.20;;;;;;;4.27;60.33;99378.43;1427911;91;23103;-82
2022/02/07 14:26:05;;;;;;;2.43;1.50;;;;;;;4.32;61.19;99378.05;1422145;91;23286;-82
2022/02/07 14:28:32;;;;;;;4.20;2.00;;;;;;;4.33;59.39;99382.31;1423863;91;22300;-81
2022/02/07 14:30:59;;;;;;;5.20;2.70;;;;;;;4.37;61.11;99386.30;1443669;90;22212;-82
2022/02/07 14:33:27;;;;;;;4.53;1.67;;;;;;;4.41;61.49;99394.75;1462924;89;23166;-82
2022/02/07 14:35:53;;;;;;;3.40;2.03;;;;;;;4.45;61.72;99394.33;1448068;89;23152;-81
2022/02/07 14:38:20;;;;;;;2.87;1.60;;;;;;;4.49;60.25;99402.78;1450938;89;22191;-82